createdAt,value
2018-12-20T00:00:44.965Z,70.50
2018-12-20T00:03:49.070Z,70.60
2018-12-20T00:06:53.581Z,70.10
2018-12-20T00:09:57.534Z,70.00
2018-12-20T00:13:02.799Z,70.10
2018-12-20T00:16:07.122Z,70.20
2018-12-20T00:19:11.355Z,70.40
2018-12-20T00:22:15.309Z,70.50
2018-12-20T00:25:19.355Z,70.50
2018-12-20T00:28:23.489Z,70.70
2018-12-20T00:31:27.607Z,70.60
2018-12-20T00:34:31.624Z,70.40
2018-12-20T00:37:35.626Z,71.00
2018-12-20T00:40:39.571Z,71.10
2018-12-20T00:43:43.551Z,70.80
2018-12-20T00:46:47.468Z,71.00
2018-12-20T00:49:51.308Z,70.70
2018-12-20T00:52:55.581Z,70.60
2018-12-20T00:55:59.711Z,71.10
2018-12-20T00:59:03.924Z,70.80
2018-12-20T01:02:08.427Z,70.70
2018-12-20T01:05:12.586Z,70.50
2018-12-20T01:08:16.698Z,70.50
2018-12-20T01:11:20.817Z,70.60
2018-12-20T01:14:24.822Z,70.20
2018-12-20T01:17:32.868Z,69.70
2018-12-20T01:20:36.934Z,69.40
2018-12-20T01:23:40.870Z,70.00
2018-12-20T01:26:44.972Z,69.30
2018-12-20T01:29:49.102Z,69.50
2018-12-20T01:32:52.996Z,69.50
2018-12-20T01:35:56.966Z,69.80
2018-12-20T01:39:00.857Z,69.60
2018-12-20T01:42:04.808Z,69.80
2018-12-20T01:45:08.819Z,69.90
2018-12-20T01:48:12.801Z,69.80
2018-12-20T01:51:17.086Z,69.80
2018-12-20T01:54:21.026Z,69.50
2018-12-20T01:57:24.880Z,69.40
2018-12-20T02:00:28.780Z,69.50
2018-12-20T02:03:32.778Z,70.30
2018-12-20T02:06:36.843Z,70.60
2018-12-20T02:09:40.759Z,70.20
2018-12-20T02:12:44.913Z,69.80
2018-12-20T02:15:49.690Z,70.10
2018-12-20T02:18:53.723Z,70.30
2018-12-20T02:21:57.627Z,71.00
2018-12-20T02:25:01.696Z,71.00
2018-12-20T02:28:06.108Z,70.90
2018-12-20T02:31:10.381Z,71.30
2018-12-20T02:34:14.818Z,71.10
2018-12-20T02:37:18.905Z,71.30
2018-12-20T02:40:23.079Z,71.60
2018-12-20T02:43:27.044Z,71.90
2018-12-20T02:46:31.236Z,72.20
2018-12-20T02:49:35.172Z,71.70
2018-12-20T02:52:39.056Z,71.70
2018-12-20T02:55:43.095Z,71.80
2018-12-20T02:58:47.076Z,71.70
2018-12-20T03:01:51.057Z,72.00
2018-12-20T03:04:54.913Z,72.90
2018-12-20T03:07:59.085Z,72.90
2018-12-20T03:11:03.160Z,72.60
2018-12-20T03:14:07.144Z,72.80
2018-12-20T03:17:11.062Z,72.70
2018-12-20T03:20:15.122Z,72.60
2018-12-20T03:23:19.196Z,72.10
2018-12-20T03:26:23.349Z,71.90
2018-12-20T03:29:27.342Z,72.30
2018-12-20T03:32:31.251Z,71.90
2018-12-20T03:35:35.369Z,71.40
2018-12-20T03:38:42.425Z,71.40
2018-12-20T03:41:46.450Z,71.30
2018-12-20T03:44:50.631Z,71.50
2018-12-20T03:47:54.842Z,71.10
2018-12-20T03:50:58.988Z,71.10
2018-12-20T03:54:03.147Z,71.40
2018-12-20T03:57:07.162Z,71.30
2018-12-20T04:00:11.141Z,71.30
2018-12-20T04:03:14.997Z,71.70
2018-12-20T04:06:18.873Z,71.90
2018-12-20T04:09:22.754Z,72.20
2018-12-20T04:12:27.177Z,71.90
2018-12-20T04:15:37.829Z,71.90
2018-12-20T04:18:37.345Z,72.00
2018-12-20T04:21:41.366Z,72.20
2018-12-20T04:24:45.344Z,72.20
2018-12-20T04:27:49.430Z,72.00
2018-12-20T04:30:53.696Z,71.70
2018-12-20T04:33:57.828Z,71.50
2018-12-20T04:37:01.843Z,71.60
2018-12-20T04:40:06.081Z,71.60
2018-12-20T04:43:10.091Z,71.70
2018-12-20T04:46:14.100Z,71.50
2018-12-20T04:49:18.405Z,71.20
2018-12-20T04:52:22.463Z,71.60
2018-12-20T04:55:26.426Z,71.60
2018-12-20T04:58:30.430Z,71.50
2018-12-20T05:01:34.776Z,72.60
2018-12-20T05:04:38.906Z,72.20
2018-12-20T05:07:42.900Z,72.10
2018-12-20T05:10:46.869Z,72.30
2018-12-20T05:13:50.781Z,72.90
2018-12-20T05:16:54.658Z,72.10
2018-12-20T05:19:58.561Z,73.30
2018-12-20T05:23:02.416Z,72.80
2018-12-20T05:26:06.707Z,72.90
2018-12-20T05:29:10.664Z,72.90
2018-12-20T05:32:14.681Z,72.80
2018-12-20T05:35:18.738Z,73.20
2018-12-20T05:38:22.760Z,73.10
2018-12-20T05:41:26.735Z,73.00
2018-12-20T05:44:30.762Z,72.90
2018-12-20T05:47:34.800Z,72.70
2018-12-20T05:50:38.711Z,73.50
2018-12-20T05:53:42.601Z,73.40
2018-12-20T05:56:46.626Z,73.40
2018-12-20T05:59:50.629Z,73.90
2018-12-20T06:02:54.627Z,74.00
2018-12-20T06:05:58.605Z,73.90
2018-12-20T06:09:02.813Z,74.00
2018-12-20T06:12:06.872Z,73.90
2018-12-20T06:15:11.164Z,74.10
2018-12-20T06:18:15.308Z,74.30
2018-12-20T06:21:19.370Z,74.40
2018-12-20T06:24:23.265Z,74.50
2018-12-20T06:27:27.212Z,74.30
2018-12-20T06:30:31.078Z,75.00
2018-12-20T06:33:35.161Z,73.90
2018-12-20T06:36:39.060Z,74.40
2018-12-20T06:39:42.969Z,74.50
2018-12-20T06:42:46.805Z,74.20
2018-12-20T06:45:50.691Z,74.10
2018-12-20T06:48:54.570Z,74.20
2018-12-20T06:51:58.605Z,74.40
2018-12-20T06:55:02.472Z,73.80
2018-12-20T06:58:06.592Z,74.40
2018-12-20T07:01:10.469Z,74.20
2018-12-20T07:04:14.419Z,74.10
2018-12-20T07:07:18.418Z,74.00
2018-12-20T07:10:22.323Z,74.40
2018-12-20T07:13:26.265Z,75.30
2018-12-20T07:16:30.145Z,75.50
2018-12-20T07:19:34.041Z,75.20
2018-12-20T07:22:38.052Z,77.30
2018-12-20T07:25:41.958Z,78.00
2018-12-20T07:28:45.881Z,77.30
2018-12-20T07:31:50.200Z,78.00
2018-12-20T07:34:54.127Z,78.60
2018-12-20T07:37:58.030Z,78.80
2018-12-20T07:41:01.921Z,79.20
2018-12-20T07:44:06.064Z,79.50
2018-12-20T07:47:10.146Z,79.40
2018-12-20T07:50:14.075Z,79.40
2018-12-20T07:53:17.953Z,79.60
2018-12-20T07:56:21.866Z,79.30
2018-12-20T07:59:25.757Z,79.20
2018-12-20T08:02:29.747Z,79.30
2018-12-20T08:05:34.375Z,79.20
2018-12-20T08:08:38.315Z,79.20
2018-12-20T08:11:42.256Z,79.10
2018-12-20T08:14:46.159Z,79.30
2018-12-20T08:17:50.137Z,79.20
2018-12-20T08:20:53.999Z,79.20
2018-12-20T08:23:57.911Z,79.20
2018-12-20T08:27:01.888Z,79.50
2018-12-20T08:30:06.515Z,79.50
2018-12-20T08:33:10.513Z,80.00
2018-12-20T08:36:14.535Z,80.30
2018-12-20T08:39:18.474Z,80.40
2018-12-20T08:42:22.385Z,80.20
2018-12-20T08:45:26.302Z,79.80
2018-12-20T08:48:30.189Z,80.30
2018-12-20T08:51:34.019Z,79.90
2018-12-20T08:54:37.974Z,79.70
2018-12-20T08:57:42.459Z,80.10
2018-12-20T09:00:46.644Z,80.10
2018-12-20T09:03:51.131Z,79.70
2018-12-20T09:06:55.651Z,79.30
2018-12-20T09:09:59.546Z,79.40
2018-12-20T09:13:09.467Z,78.80
2018-12-20T09:16:09.522Z,79.40
2018-12-20T09:19:13.474Z,79.80
2018-12-20T09:38:51.588Z,81.40
2018-12-20T09:41:55.679Z,82.50
2018-12-20T09:44:59.870Z,82.80
2018-12-20T09:48:05.905Z,82.70
2018-12-20T09:51:10.935Z,82.80
2018-12-20T09:54:14.836Z,82.10
2018-12-20T09:57:19.294Z,81.10
2018-12-20T10:00:23.499Z,80.40
2018-12-20T10:03:27.452Z,80.30
2018-12-20T10:06:32.500Z,80.10
2018-12-20T10:09:36.645Z,79.40
2018-12-20T10:12:40.538Z,79.60
2018-12-20T10:15:44.499Z,79.30
2018-12-20T10:18:48.482Z,79.30
2018-12-20T10:21:52.409Z,79.90
2018-12-20T10:24:56.370Z,79.50
2018-12-20T10:28:00.303Z,79.20
2018-12-20T10:31:04.342Z,79.30
2018-12-20T10:34:08.224Z,79.50
2018-12-20T10:37:12.096Z,79.40
2018-12-20T10:40:16.471Z,79.00
2018-12-20T10:43:20.417Z,78.20
2018-12-20T10:46:24.334Z,79.00
2018-12-20T10:49:28.461Z,79.40
2018-12-20T10:52:32.845Z,78.60
2018-12-20T10:55:37.156Z,78.50
2018-12-20T10:58:41.336Z,78.00
2018-12-20T11:01:49.237Z,77.60
2018-12-20T11:04:58.670Z,76.80
2018-12-20T11:08:08.111Z,77.00
2018-12-20T11:11:16.147Z,77.00
2018-12-20T11:14:20.037Z,76.90
2018-12-20T11:17:23.953Z,75.60
2018-12-20T11:20:28.335Z,75.90
2018-12-20T11:23:32.763Z,73.90
2018-12-20T11:26:36.762Z,73.50
2018-12-20T11:29:41.050Z,72.70
2018-12-20T11:32:45.358Z,71.20
2018-12-20T11:35:49.229Z,71.20
2018-12-20T11:38:53.147Z,71.00
2018-12-20T11:41:57.381Z,70.60
2018-12-20T11:45:01.299Z,69.00
2018-12-20T11:48:05.226Z,68.10
2018-12-20T11:51:09.138Z,66.80
2018-12-20T11:54:13.279Z,66.70
2018-12-20T11:57:17.625Z,65.90
2018-12-20T12:00:21.910Z,62.10
2018-12-20T12:03:26.576Z,61.70
2018-12-20T12:06:30.481Z,59.80
2018-12-20T12:09:35.632Z,59.90
2018-12-20T12:12:39.745Z,60.50
2018-12-20T12:15:43.997Z,61.50
2018-12-20T12:18:48.426Z,63.00
2018-12-20T12:21:52.551Z,63.90
2018-12-20T12:24:56.901Z,65.00
2018-12-20T12:28:01.142Z,65.40
2018-12-20T12:31:05.455Z,66.40
2018-12-20T12:34:09.880Z,67.30
2018-12-20T12:37:14.370Z,67.70
2018-12-20T12:40:18.800Z,67.90
2018-12-20T12:43:22.750Z,68.30
2018-12-20T12:46:26.782Z,68.10
2018-12-20T12:49:31.173Z,67.50
2018-12-20T12:52:35.519Z,67.10
2018-12-20T12:55:39.720Z,66.90
2018-12-20T12:58:44.015Z,67.30
2018-12-20T13:01:48.442Z,67.50
2018-12-20T13:04:52.810Z,68.80
2018-12-20T13:07:57.073Z,69.60
2018-12-20T13:11:01.331Z,70.70
2018-12-20T13:14:05.821Z,71.40
2018-12-20T13:17:10.160Z,72.70
2018-12-20T13:20:14.614Z,72.30
2018-12-20T13:23:18.915Z,71.90
2018-12-20T13:26:23.276Z,69.90
2018-12-20T13:29:27.551Z,67.30
2018-12-20T13:32:31.760Z,65.20
2018-12-20T13:35:35.992Z,64.20
2018-12-20T13:38:40.417Z,64.70
2018-12-20T13:41:44.877Z,63.30
2018-12-20T13:44:49.092Z,62.40
2018-12-20T13:47:53.510Z,61.60
2018-12-20T13:50:57.870Z,62.00
2018-12-20T13:54:02.237Z,63.00
2018-12-20T13:57:06.716Z,64.40
2018-12-20T14:00:15.314Z,66.20
2018-12-20T14:03:19.180Z,67.80
2018-12-20T14:06:23.533Z,68.70
2018-12-20T14:09:27.891Z,70.00
2018-12-20T14:12:32.185Z,71.40
2018-12-20T14:15:36.544Z,72.80
2018-12-20T14:18:40.456Z,73.60
2018-12-20T14:21:44.767Z,74.40
2018-12-20T14:24:49.059Z,75.30
2018-12-20T14:27:53.402Z,76.00
2018-12-20T14:30:57.499Z,76.70
2018-12-20T14:34:01.716Z,77.00
2018-12-20T14:37:06.002Z,77.40
2018-12-20T14:40:10.764Z,77.90
2018-12-20T14:43:15.156Z,78.40
2018-12-20T14:46:19.559Z,78.90
2018-12-20T14:49:23.872Z,79.10
2018-12-20T14:52:27.812Z,79.70
2018-12-20T14:55:31.955Z,79.80
2018-12-20T14:58:36.454Z,79.70
2018-12-20T15:01:40.788Z,80.20
2018-12-20T15:04:45.091Z,80.20
2018-12-20T15:07:49.248Z,80.20
2018-12-20T15:10:53.240Z,81.10
2018-12-20T15:13:57.131Z,81.20
2018-12-20T15:17:01.093Z,81.20
2018-12-20T15:20:06.132Z,81.20
2018-12-20T15:23:10.433Z,81.10
2018-12-20T15:26:14.697Z,81.30
2018-12-20T15:29:19.528Z,81.40
2018-12-20T15:32:23.955Z,81.50
2018-12-20T15:35:28.281Z,81.40
2018-12-20T15:38:33.208Z,81.40
2018-12-20T15:41:37.560Z,81.40
2018-12-20T15:44:41.846Z,81.50
2018-12-20T15:47:46.299Z,81.80
2018-12-20T15:50:50.663Z,81.60
2018-12-20T15:53:54.946Z,81.60
2018-12-20T15:56:58.806Z,81.80
2018-12-20T16:00:03.638Z,81.60
2018-12-20T16:03:07.884Z,81.70
2018-12-20T16:06:12.643Z,81.80
2018-12-20T16:09:17.054Z,81.90
2018-12-20T16:12:21.246Z,82.10
2018-12-20T16:15:25.108Z,82.20
2018-12-20T16:18:29.415Z,82.00
2018-12-20T16:21:33.634Z,82.00
2018-12-20T16:24:37.568Z,82.00
2018-12-20T16:27:41.901Z,81.90
2018-12-20T16:30:45.850Z,82.00
2018-12-20T16:33:49.774Z,81.90
2018-12-20T16:36:54.301Z,81.60
2018-12-20T16:39:58.736Z,81.40
2018-12-20T16:43:02.626Z,81.40
2018-12-20T16:46:06.569Z,81.50
2018-12-20T16:49:13.682Z,81.80
2018-12-20T16:52:16.857Z,82.20
2018-12-20T16:55:20.942Z,82.20
2018-12-20T16:58:25.737Z,82.20
2018-12-20T17:01:30.284Z,82.20
2018-12-20T17:04:35.243Z,82.10
2018-12-20T17:07:39.196Z,82.20
2018-12-20T17:10:43.566Z,82.10
2018-12-20T17:13:47.815Z,81.90
2018-12-20T17:16:51.752Z,81.90
2018-12-20T17:19:56.017Z,83.00
2018-12-20T17:23:00.312Z,84.00
2018-12-20T17:26:04.630Z,84.10
2018-12-20T17:29:09.263Z,84.40
2018-12-20T17:32:13.462Z,84.30
2018-12-20T17:35:18.788Z,83.80
2018-12-20T17:38:23.351Z,82.90
2018-12-20T17:41:27.644Z,82.40
2018-12-20T17:44:32.162Z,82.20
2018-12-20T17:47:36.483Z,82.30
2018-12-20T17:50:41.044Z,82.60
2018-12-20T17:53:44.987Z,82.50
2018-12-20T17:56:48.975Z,82.30
2018-12-20T17:59:52.839Z,82.40
2018-12-20T18:02:57.381Z,82.30
2018-12-20T18:06:01.593Z,82.30
2018-12-20T18:09:08.314Z,82.40
2018-12-20T18:12:12.343Z,82.60
2018-12-20T18:15:16.712Z,82.80
2018-12-20T18:18:21.296Z,83.10
2018-12-20T18:21:25.317Z,82.90
2018-12-20T18:24:29.633Z,83.10
2018-12-20T18:27:33.591Z,83.20
2018-12-20T18:30:37.836Z,83.20
2018-12-20T18:33:41.805Z,83.00
2018-12-20T18:36:45.897Z,83.40
2018-12-20T18:39:50.241Z,83.40
2018-12-20T18:42:54.187Z,83.40
2018-12-20T18:45:58.517Z,83.30
2018-12-20T18:49:02.736Z,84.40
2018-12-20T18:52:06.984Z,83.70
2018-12-20T18:55:11.364Z,83.90
2018-12-20T18:58:15.744Z,84.00
2018-12-20T19:01:20.108Z,83.70
2018-12-20T19:04:24.557Z,83.90
2018-12-20T19:07:28.826Z,84.30
2018-12-20T19:10:33.141Z,84.60
2018-12-20T19:13:37.127Z,85.00
2018-12-20T19:16:41.312Z,84.10
2018-12-20T19:19:56.005Z,84.30
2018-12-20T19:22:53.991Z,84.70
2018-12-20T19:25:58.263Z,85.60
2018-12-20T19:29:03.968Z,84.50
2018-12-20T19:32:21.519Z,84.50
2018-12-20T19:35:26.014Z,84.20
2018-12-20T19:38:30.283Z,84.20
2018-12-20T19:41:34.678Z,84.30
2018-12-20T19:44:39.039Z,84.40
2018-12-20T19:47:42.955Z,84.50
2018-12-20T19:50:47.068Z,84.50
2018-12-20T19:53:51.513Z,84.20
2018-12-20T19:56:57.679Z,84.10
2018-12-20T20:00:02.051Z,84.30
2018-12-20T20:03:06.016Z,84.20
2018-12-20T20:06:10.644Z,84.10
2018-12-20T20:09:15.019Z,84.40
2018-12-20T20:12:19.379Z,84.40
2018-12-20T20:15:23.894Z,84.30
2018-12-20T20:18:27.763Z,84.20
2018-12-20T20:21:31.610Z,83.80
2018-12-20T20:24:36.096Z,83.70
2018-12-20T20:27:40.415Z,83.80
2018-12-20T20:30:44.628Z,84.10
2018-12-20T20:33:50.336Z,84.10
2018-12-20T20:36:55.187Z,83.90
2018-12-20T20:40:05.351Z,84.10
2018-12-20T20:43:09.812Z,84.20
2018-12-20T20:46:13.776Z,84.40
2018-12-20T20:49:25.386Z,84.30
2018-12-20T20:52:30.221Z,83.60
2018-12-20T20:55:34.152Z,84.10
2018-12-20T20:58:38.383Z,84.20
2018-12-20T21:01:42.617Z,84.60
2018-12-20T21:04:47.127Z,84.60
2018-12-20T21:07:51.401Z,84.50
2018-12-20T21:10:55.656Z,84.50
2018-12-20T21:14:00.127Z,84.90
2018-12-20T21:17:04.342Z,84.80
2018-12-20T21:20:10.915Z,84.60
2018-12-20T21:23:14.933Z,84.90
2018-12-20T21:26:18.855Z,85.10
2018-12-20T21:29:23.333Z,85.10
2018-12-20T21:32:27.494Z,85.40
2018-12-20T21:35:31.443Z,86.00
2018-12-20T21:38:35.718Z,86.10
2018-12-20T21:41:40.051Z,86.10
2018-12-20T21:44:44.675Z,86.00
2018-12-20T21:47:49.179Z,85.90
2018-12-20T21:50:53.486Z,85.90
2018-12-20T21:53:57.762Z,86.70
2018-12-20T21:57:02.041Z,85.40
2018-12-20T22:00:09.207Z,85.70
2018-12-20T22:03:13.357Z,85.80
2018-12-20T22:06:17.257Z,85.60
2018-12-20T22:09:21.624Z,85.70
2018-12-20T22:12:25.911Z,85.50
2018-12-20T22:15:30.264Z,85.70
2018-12-20T22:18:34.666Z,85.80
2018-12-20T22:21:39.119Z,85.90
2018-12-20T22:24:43.311Z,86.20
2018-12-20T22:27:48.392Z,86.00
2018-12-20T22:30:52.283Z,86.20
2018-12-20T22:33:56.579Z,86.40
2018-12-20T22:37:00.948Z,86.30
2018-12-20T22:40:06.035Z,86.50
2018-12-20T22:43:10.255Z,86.60
2018-12-20T22:46:14.691Z,86.80
2018-12-20T22:49:19.083Z,86.80
2018-12-20T22:52:23.079Z,86.60
2018-12-20T22:55:27.058Z,86.20
2018-12-20T22:58:31.198Z,86.00
2018-12-20T23:01:35.344Z,86.40
2018-12-20T23:04:39.319Z,86.50
2018-12-20T23:07:43.769Z,86.40
2018-12-20T23:10:47.940Z,85.90
2018-12-20T23:13:52.157Z,85.90
2018-12-20T23:17:02.723Z,86.00
2018-12-20T23:20:07.830Z,86.80
2018-12-20T23:23:11.916Z,87.40
2018-12-20T23:26:16.218Z,86.20
2018-12-20T23:29:20.327Z,86.40
2018-12-20T23:32:24.532Z,86.60
2018-12-20T23:35:28.980Z,86.50
2018-12-20T23:38:33.299Z,87.00
2018-12-20T23:41:37.663Z,86.70
2018-12-20T23:44:41.998Z,86.90
2018-12-20T23:47:46.536Z,86.20
2018-12-20T23:50:50.468Z,86.40
2018-12-20T23:53:54.967Z,87.30
2018-12-20T23:56:58.882Z,86.70
